Time;durP1;ratioP1;P1;durP2;ratioP2;P2;SDS_P1;SDS_P2;PMS_P1;PMS_P2;Temp;Humidity;BMP_temperature;BMP_pressure;BME280_temperature;BME280_humidity;BME280_pressure;Samples;Min_cycle;Max_cycle;Signal;HPM_P1;HPM_P2
2022/02/22 00:00:28;;;;;;;7.43;3.17;;;;;;;;;;5017862;28;20207;-64
2022/02/22 00:02:58;;;;;;;7.13;2.77;;;;;;;;;;5021469;28;20239;-64
2022/02/22 00:05:26;;;;;;;7.10;3.10;;;;;;;;;;5017058;28;20282;-64
2022/02/22 00:08:10;;;;;;;8.40;3.13;;;;;;;;;;5017516;28;20264;-66
2022/02/22 00:10:48;;;;;;;6.63;2.63;;;;;;;;;;5025847;28;20289;-64
2022/02/22 00:13:17;;;;;;;7.30;2.93;;;;;;;;;;5024006;28;20210;-63
2022/02/22 00:15:47;;;;;;;8.70;3.10;;;;;;;;;;5022176;28;20222;-65
2022/02/22 00:18:14;;;;;;;8.23;3.10;;;;;;;;;;5029808;28;20642;-64
2022/02/22 00:20:46;;;;;;;6.83;2.80;;;;;;;;;;5022225;28;20225;-64
2022/02/22 00:23:21;;;;;;;9.13;3.00;;;;;;;;;;5024695;28;20220;-64
2022/02/22 00:25:52;;;;;;;6.57;2.73;;;;;;;;;;5028134;28;20227;-64
2022/02/22 00:28:24;;;;;;;8.40;2.73;;;;;;;;;;5031204;28;20320;-64
2022/02/22 00:30:54;;;;;;;8.23;3.33;;;;;;;;;;5026816;28;20206;-64
2022/02/22 00:33:23;;;;;;;9.63;3.03;;;;;;;;;;5026582;28;20222;-65
2022/02/22 00:35:54;;;;;;;10.20;3.00;;;;;;;;;;5025791;28;20273;-64
2022/02/22 00:38:27;;;;;;;7.30;2.53;;;;;;;;;;5032671;28;20198;-65
2022/02/22 00:40:59;;;;;;;7.37;2.63;;;;;;;;;;5026736;28;20202;-64
2022/02/22 00:43:32;;;;;;;8.70;2.90;;;;;;;;;;5025146;28;20219;-64
2022/02/22 00:46:04;;;;;;;7.87;2.90;;;;;;;;;;5029801;28;20210;-63
2022/02/22 00:48:33;;;;;;;6.40;2.70;;;;;;;;;;5027630;28;20290;-64
2022/02/22 00:51:04;;;;;;;5.93;2.40;;;;;;;;;;5019906;28;20195;-63
2022/02/22 00:53:37;;;;;;;9.93;3.40;;;;;;;;;;5024595;28;20210;-64
2022/02/22 00:56:11;;;;;;;7.63;2.47;;;;;;;;;;5027954;28;20233;-64
2022/02/22 00:58:40;;;;;;;7.37;2.80;;;;;;;;;;5026478;28;20203;-63
2022/02/22 01:01:15;;;;;;;7.50;2.70;;;;;;;;;;5027052;28;20710;-63
2022/02/22 01:03:45;;;;;;;10.43;3.20;;;;;;;;;;5018249;28;20543;-64
2022/02/22 01:06:17;;;;;;;9.40;3.50;;;;;;;;;;5012616;28;20199;-64
2022/02/22 01:08:49;;;;;;;8.87;2.87;;;;;;;;;;5015308;28;20222;-64
2022/02/22 01:11:22;;;;;;;6.93;2.87;;;;;;;;;;5031266;28;20199;-64
2022/02/22 01:13:54;;;;;;;6.60;2.70;;;;;;;;;;5019020;28;20245;-64
2022/02/22 01:16:26;;;;;;;5.90;2.50;;;;;;;;;;5030796;28;20207;-64
2022/02/22 01:18:55;;;;;;;8.37;2.37;;;;;;;;;;5019040;28;20210;-64
2022/02/22 01:21:24;;;;;;;9.47;3.27;;;;;;;;;;5011677;28;20216;-64
2022/02/22 01:23:52;;;;;;;7.50;3.00;;;;;;;;;;5020957;28;20207;-63
2022/02/22 01:26:24;;;;;;;8.27;2.80;;;;;;;;;;5020196;28;20740;-64
2022/02/22 01:29:02;;;;;;;7.37;2.60;;;;;;;;;;5020221;28;20199;-65
2022/02/22 01:31:37;;;;;;;5.77;2.50;;;;;;;;;;5022304;28;20290;-63
2022/02/22 01:34:09;;;;;;;7.17;2.77;;;;;;;;;;5023940;28;20724;-64
2022/02/22 01:36:41;;;;;;;6.27;2.70;;;;;;;;;;5024554;28;20208;-64
2022/02/22 01:39:11;;;;;;;8.47;3.10;;;;;;;;;;5003674;28;20203;-64
2022/02/22 01:41:44;;;;;;;8.37;2.37;;;;;;;;;;5022250;28;20306;-63
2022/02/22 01:44:24;;;;;;;5.03;2.17;;;;;;;;;;5020009;28;20682;-65
2022/02/22 01:47:04;;;;;;;8.70;2.97;;;;;;;;;;5020611;28;20634;-65
2022/02/22 01:49:38;;;;;;;7.43;2.60;;;;;;;;;;5025789;28;20191;-64
2022/02/22 01:52:26;;;;;;;8.37;3.13;;;;;;;;;;5017807;28;20242;-63
2022/02/22 01:55:00;;;;;;;6.57;2.50;;;;;;;;;;5026642;28;20623;-63
2022/02/22 01:57:30;;;;;;;6.80;2.87;;;;;;;;;;5018514;28;20681;-64
2022/02/22 02:00:03;;;;;;;5.00;2.17;;;;;;;;;;5026396;28;20222;-63
2022/02/22 02:02:33;;;;;;;8.33;2.47;;;;;;;;;;5019021;28;20603;-63
2022/02/22 02:05:06;;;;;;;7.40;2.83;;;;;;;;;;5001387;28;20698;-63
2022/02/22 02:07:49;;;;;;;6.03;2.50;;;;;;;;;;4981958;28;20313;-64
2022/02/22 02:10:20;;;;;;;6.70;2.63;;;;;;;;;;5004545;28;20197;-65
2022/02/22 02:12:52;;;;;;;6.20;2.37;;;;;;;;;;5002061;28;20285;-64
2022/02/22 02:15:24;;;;;;;5.93;2.40;;;;;;;;;;4981245;28;20225;-65
2022/02/22 02:17:53;;;;;;;7.00;2.70;;;;;;;;;;5004911;28;20211;-64
2022/02/22 02:20:25;;;;;;;4.60;2.17;;;;;;;;;;5002656;28;20253;-64
2022/02/22 02:22:59;;;;;;;5.17;1.80;;;;;;;;;;5005426;28;20203;-64
2022/02/22 02:25:27;;;;;;;5.13;2.33;;;;;;;;;;5002564;28;20212;-65
2022/02/22 02:28:01;;;;;;;5.77;2.20;;;;;;;;;;5006420;28;20203;-64
2022/02/22 02:30:34;;;;;;;7.73;2.63;;;;;;;;;;5003430;28;20542;-64
2022/02/22 02:33:06;;;;;;;4.93;2.30;;;;;;;;;;5015585;28;20732;-63
2022/02/22 02:35:36;;;;;;;3.97;1.93;;;;;;;;;;4987309;28;20219;-63
2022/02/22 02:38:10;;;;;;;6.40;2.87;;;;;;;;;;5014385;28;20184;-65
2022/02/22 02:40:41;;;;;;;6.97;2.23;;;;;;;;;;5000965;28;20204;-65
2022/02/22 02:43:14;;;;;;;9.20;2.30;;;;;;;;;;5002677;28;20204;-64
2022/02/22 02:45:46;;;;;;;6.93;2.47;;;;;;;;;;4982358;28;20207;-64
2022/02/22 02:48:17;;;;;;;6.63;2.60;;;;;;;;;;5005973;28;20213;-65
2022/02/22 02:50:49;;;;;;;5.10;2.37;;;;;;;;;;5004689;28;20612;-65
2022/02/22 02:53:22;;;;;;;7.40;2.63;;;;;;;;;;5008534;28;20226;-63
2022/02/22 02:56:00;;;;;;;6.33;2.30;;;;;;;;;;4985742;28;20223;-63
2022/02/22 02:58:29;;;;;;;6.63;2.10;;;;;;;;;;5005986;28;20261;-64
2022/02/22 03:01:01;;;;;;;6.10;2.30;;;;;;;;;;5002578;28;20619;-63
2022/02/22 03:03:34;;;;;;;6.00;2.30;;;;;;;;;;5009457;28;20274;-63
2022/02/22 03:06:05;;;;;;;5.67;1.93;;;;;;;;;;5015838;28;20227;-63
2022/02/22 03:08:36;;;;;;;7.70;2.40;;;;;;;;;;5015516;28;20212;-64
2022/02/22 03:11:05;;;;;;;6.70;2.20;;;;;;;;;;5022499;28;20691;-63
2022/02/22 03:13:36;;;;;;;4.47;2.07;;;;;;;;;;5004537;28;20237;-64
2022/02/22 03:16:08;;;;;;;4.93;2.10;;;;;;;;;;5008271;28;20199;-63
2022/02/22 03:18:42;;;;;;;5.47;2.17;;;;;;;;;;5005290;28;20237;-63
2022/02/22 03:21:17;;;;;;;7.00;2.40;;;;;;;;;;5019595;28;20218;-63
2022/02/22 03:23:50;;;;;;;5.50;2.20;;;;;;;;;;5015764;28;20214;-63
2022/02/22 03:26:20;;;;;;;5.20;2.40;;;;;;;;;;5006437;28;20195;-65
2022/02/22 03:28:52;;;;;;;5.03;1.77;;;;;;;;;;5014593;28;20227;-64
2022/02/22 03:31:22;;;;;;;5.93;1.90;;;;;;;;;;5020258;28;20672;-63
2022/02/22 03:33:54;;;;;;;4.13;2.20;;;;;;;;;;5005191;28;20578;-63
2022/02/22 03:36:25;;;;;;;3.87;1.77;;;;;;;;;;5025045;28;20211;-64
2022/02/22 03:38:58;;;;;;;5.67;2.40;;;;;;;;;;5016402;28;20206;-64
2022/02/22 03:41:29;;;;;;;4.20;2.10;;;;;;;;;;5023808;28;20234;-64
2022/02/22 03:43:59;;;;;;;6.20;2.53;;;;;;;;;;5002623;28;20820;-65
2022/02/22 03:46:31;;;;;;;5.90;2.10;;;;;;;;;;5021925;28;20214;-65
2022/02/22 03:49:02;;;;;;;5.30;2.37;;;;;;;;;;5016426;28;20198;-64
2022/02/22 03:51:29;;;;;;;4.53;2.00;;;;;;;;;;5022253;28;20203;-65
2022/02/22 03:54:01;;;;;;;7.00;2.60;;;;;;;;;;5016319;28;20203;-65
2022/02/22 03:56:33;;;;;;;4.30;2.10;;;;;;;;;;5000733;28;20283;-64
2022/02/22 03:59:02;;;;;;;5.80;2.13;;;;;;;;;;5020463;28;20582;-64
2022/02/22 04:01:33;;;;;;;4.27;2.00;;;;;;;;;;5018950;28;20631;-64
2022/02/22 04:04:02;;;;;;;4.93;2.10;;;;;;;;;;5011269;28;20211;-64
2022/02/22 04:06:30;;;;;;;5.87;2.40;;;;;;;;;;5023094;28;20234;-64
2022/02/22 04:09:03;;;;;;;3.90;1.80;;;;;;;;;;5011810;28;20218;-64
2022/02/22 04:11:48;;;;;;;4.17;1.87;;;;;;;;;;5018512;28;20272;-64
2022/02/22 04:14:21;;;;;;;5.60;2.00;;;;;;;;;;5025281;28;20291;-63
2022/02/22 04:16:49;;;;;;;6.47;2.07;;;;;;;;;;5017052;28;20267;-64
2022/02/22 04:19:23;;;;;;;4.77;2.10;;;;;;;;;;5020819;28;20203;-64
2022/02/22 04:21:58;;;;;;;5.60;2.10;;;;;;;;;;5018532;28;20253;-64
2022/02/22 04:24:30;;;;;;;4.27;1.67;;;;;;;;;;5018976;28;20210;-63
2022/02/22 04:26:59;;;;;;;4.13;1.53;;;;;;;;;;5018937;28;20732;-63
2022/02/22 04:29:28;;;;;;;4.23;1.90;;;;;;;;;;5022362;28;20245;-63
2022/02/22 04:32:00;;;;;;;4.43;1.90;;;;;;;;;;5019137;28;20219;-63
2022/02/22 04:34:31;;;;;;;6.47;2.53;;;;;;;;;;5004532;28;20204;-64
2022/02/22 04:37:02;;;;;;;4.63;1.90;;;;;;;;;;5017127;28;20211;-63
2022/02/22 04:39:34;;;;;;;4.43;1.73;;;;;;;;;;5031691;28;20215;-64
2022/02/22 04:42:22;;;;;;;5.87;2.97;;;;;;;;;;5019555;28;20226;-64
2022/02/22 04:44:55;;;;;;;4.53;1.97;;;;;;;;;;5023400;28;20289;-63
2022/02/22 04:47:26;;;;;;;5.47;2.30;;;;;;;;;;5013240;28;20200;-64
2022/02/22 04:49:56;;;;;;;5.33;2.30;;;;;;;;;;5025016;28;20634;-65
2022/02/22 04:52:26;;;;;;;4.43;2.10;;;;;;;;;;5021678;28;20223;-64
2022/02/22 04:54:59;;;;;;;4.90;1.90;;;;;;;;;;5021459;28;20199;-64
2022/02/22 04:57:31;;;;;;;4.90;2.43;;;;;;;;;;5003589;28;20218;-63
2022/02/22 05:00:04;;;;;;;6.00;2.37;;;;;;;;;;5006373;28;20210;-65
2022/02/22 05:02:35;;;;;;;6.37;2.13;;;;;;;;;;5008776;28;20429;-64
2022/02/22 05:05:08;;;;;;;6.33;2.07;;;;;;;;;;5017667;28;20242;-63
2022/02/22 05:07:39;;;;;;;4.93;2.10;;;;;;;;;;5022206;28;20259;-64
2022/02/22 05:10:08;;;;;;;4.47;1.83;;;;;;;;;;5014107;28;20720;-64
2022/02/22 05:12:41;;;;;;;4.30;1.70;;;;;;;;;;5025718;28;20203;-64
2022/02/22 05:15:14;;;;;;;3.97;2.00;;;;;;;;;;5016519;28;20222;-64
2022/02/22 05:17:46;;;;;;;6.40;2.33;;;;;;;;;;5021951;28;20210;-64
2022/02/22 05:20:28;;;;;;;4.33;1.97;;;;;;;;;;5014760;28;20255;-63
2022/02/22 05:23:00;;;;;;;5.87;2.20;;;;;;;;;;5027054;28;20231;-63
2022/02/22 05:25:29;;;;;;;3.30;1.77;;;;;;;;;;5017231;28;20215;-64
2022/02/22 05:27:59;;;;;;;6.40;2.27;;;;;;;;;;5025927;28;20682;-64
2022/02/22 05:30:29;;;;;;;4.87;1.90;;;;;;;;;;5021038;28;20199;-64
2022/02/22 05:32:59;;;;;;;7.17;2.43;;;;;;;;;;5021423;28;20210;-63
2022/02/22 05:35:28;;;;;;;5.27;2.10;;;;;;;;;;5022057;28;20689;-63
2022/02/22 05:37:59;;;;;;;6.27;1.70;;;;;;;;;;5024056;28;20821;-63
2022/02/22 05:40:30;;;;;;;5.57;2.17;;;;;;;;;;5023637;28;20238;-63
2022/02/22 05:43:01;;;;;;;4.93;1.90;;;;;;;;;;5018311;28;20229;-63
2022/02/22 05:45:33;;;;;;;4.83;2.03;;;;;;;;;;5016752;28;20230;-64
2022/02/22 05:48:05;;;;;;;7.33;1.80;;;;;;;;;;5007295;28;20203;-64
2022/02/22 05:50:38;;;;;;;7.33;2.20;;;;;;;;;;5004696;28;20202;-64
2022/02/22 05:53:09;;;;;;;4.67;2.00;;;;;;;;;;5015602;28;20556;-64
2022/02/22 05:55:41;;;;;;;5.77;1.90;;;;;;;;;;5023959;28;20586;-64
2022/02/22 05:58:11;;;;;;;5.10;2.10;;;;;;;;;;5020415;28;20207;-64
2022/02/22 06:00:46;;;;;;;4.57;1.80;;;;;;;;;;5018291;28;20262;-64
2022/02/22 06:03:17;;;;;;;5.00;2.17;;;;;;;;;;5012288;28;20223;-65
2022/02/22 06:05:47;;;;;;;4.93;2.17;;;;;;;;;;5023371;28;20748;-64
2022/02/22 06:08:26;;;;;;;8.60;2.30;;;;;;;;;;5014501;28;20250;-66
2022/02/22 06:10:54;;;;;;;5.00;2.37;;;;;;;;;;5022841;28;20215;-64
2022/02/22 06:13:26;;;;;;;7.60;2.07;;;;;;;;;;5018806;28;20634;-64
2022/02/22 06:15:58;;;;;;;6.70;2.17;;;;;;;;;;5021417;28;20223;-64
2022/02/22 06:18:28;;;;;;;6.53;2.33;;;;;;;;;;5024426;28;20660;-64
2022/02/22 06:20:58;;;;;;;5.93;2.00;;;;;;;;;;5018845;28;20207;-63
2022/02/22 06:23:27;;;;;;;6.07;2.13;;;;;;;;;;5016411;28;20249;-64
2022/02/22 06:25:57;;;;;;;3.77;2.10;;;;;;;;;;5030042;28;20215;-64
2022/02/22 06:28:43;;;;;;;5.17;2.37;;;;;;;;;;5021915;28;20740;-63
2022/02/22 06:31:16;;;;;;;6.80;1.93;;;;;;;;;;5023334;28;20199;-64
2022/02/22 06:33:48;;;;;;;8.10;2.70;;;;;;;;;;5023723;28;20217;-63
2022/02/22 06:36:20;;;;;;;6.77;1.97;;;;;;;;;;5021940;28;20218;-63
2022/02/22 06:38:50;;;;;;;5.53;1.90;;;;;;;;;;5019472;28;20203;-64
2022/02/22 06:41:23;;;;;;;5.93;2.17;;;;;;;;;;5016798;28;20198;-63
2022/02/22 06:43:55;;;;;;;5.17;1.93;;;;;;;;;;5015372;28;20207;-64
2022/02/22 06:46:36;;;;;;;5.03;2.30;;;;;;;;;;5017460;28;20271;-63
2022/02/22 06:49:06;;;;;;;4.43;2.20;;;;;;;;;;5019221;28;20206;-63
2022/02/22 06:51:35;;;;;;;5.27;1.90;;;;;;;;;;5016012;28;20195;-65
2022/02/22 06:54:07;;;;;;;4.57;1.90;;;;;;;;;;5023187;28;20187;-66
2022/02/22 06:56:35;;;;;;;4.80;2.20;;;;;;;;;;5012764;28;20218;-65
2022/02/22 06:59:03;;;;;;;5.27;2.47;;;;;;;;;;5023914;28;20213;-65
2022/02/22 07:01:32;;;;;;;14.30;4.93;;;;;;;;;;5004603;28;20210;-65
2022/02/22 07:04:03;;;;;;;17.80;5.30;;;;;;;;;;5023241;28;20586;-65
2022/02/22 07:06:35;;;;;;;20.63;5.53;;;;;;;;;;5017448;28;20230;-65
2022/02/22 07:09:06;;;;;;;19.40;5.50;;;;;;;;;;5018359;28;20628;-65
2022/02/22 07:11:37;;;;;;;17.50;5.63;;;;;;;;;;5019144;28;20874;-65
2022/02/22 07:14:10;;;;;;;15.10;5.23;;;;;;;;;;5023377;28;20229;-65
2022/02/22 07:16:42;;;;;;;18.03;5.43;;;;;;;;;;5018312;28;20206;-65
2022/02/22 07:19:15;;;;;;;18.07;4.73;;;;;;;;;;5016687;28;20207;-65
2022/02/22 07:21:47;;;;;;;18.80;5.30;;;;;;;;;;5017428;28;20206;-66
2022/02/22 07:24:17;;;;;;;14.70;5.27;;;;;;;;;;5008416;28;20229;-67
2022/02/22 07:26:46;;;;;;;13.47;4.50;;;;;;;;;;5023067;28;20207;-63
2022/02/22 07:29:18;;;;;;;12.00;4.00;;;;;;;;;;5023489;28;20191;-66
2022/02/22 07:31:50;;;;;;;13.80;4.20;;;;;;;;;;5016777;28;20210;-67
2022/02/22 07:34:21;;;;;;;13.47;4.70;;;;;;;;;;5004182;28;20719;-66
2022/02/22 07:36:59;;;;;;;15.37;5.03;;;;;;;;;;5018700;28;20194;-65
2022/02/22 07:39:31;;;;;;;12.97;4.47;;;;;;;;;;5015791;28;20191;-65
2022/02/22 07:41:58;;;;;;;14.83;4.73;;;;;;;;;;5021356;28;20630;-66
2022/02/22 07:44:32;;;;;;;11.40;4.50;;;;;;;;;;5016368;28;20208;-65
2022/02/22 07:47:03;;;;;;;10.17;4.23;;;;;;;;;;5023333;28;20756;-65
2022/02/22 07:49:33;;;;;;;12.27;3.87;;;;;;;;;;5016711;28;20235;-66
2022/02/22 07:52:21;;;;;;;12.20;4.10;;;;;;;;;;5021216;28;20793;-65
2022/02/22 07:54:51;;;;;;;8.13;3.60;;;;;;;;;;5002640;28;20270;-63
2022/02/22 07:57:24;;;;;;;10.40;3.57;;;;;;;;;;5014891;28;20214;-65
2022/02/22 07:59:54;;;;;;;13.80;4.23;;;;;;;;;;5018439;28;20666;-65
2022/02/22 08:02:25;;;;;;;8.83;3.80;;;;;;;;;;5009419;28;20214;-65
2022/02/22 08:04:55;;;;;;;10.40;3.53;;;;;;;;;;5019624;28;20704;-66
2022/02/22 08:07:24;;;;;;;8.30;3.33;;;;;;;;;;5016194;28;20207;-66
2022/02/22 08:09:56;;;;;;;10.60;3.27;;;;;;;;;;5004694;28;20200;-65
2022/02/22 08:12:30;;;;;;;12.80;4.00;;;;;;;;;;5021814;28;20202;-63
2022/02/22 08:14:58;;;;;;;12.97;3.73;;;;;;;;;;5019669;28;20207;-65
2022/02/22 08:17:31;;;;;;;14.97;4.20;;;;;;;;;;5016335;28;20190;-64
2022/02/22 08:19:59;;;;;;;11.87;4.13;;;;;;;;;;5017912;28;20546;-63
2022/02/22 08:22:31;;;;;;;13.03;4.63;;;;;;;;;;5010968;28;20203;-62
2022/02/22 08:25:00;;;;;;;11.10;3.90;;;;;;;;;;5025551;28;20236;-61
2022/02/22 08:27:32;;;;;;;15.07;3.73;;;;;;;;;;5017848;28;20195;-63
2022/02/22 08:30:15;;;;;;;12.23;3.67;;;;;;;;;;5019399;28;20249;-62
2022/02/22 08:32:43;;;;;;;13.23;3.50;;;;;;;;;;5019996;28;20688;-62
2022/02/22 08:35:15;;;;;;;11.77;3.87;;;;;;;;;;5015166;28;20206;-62
2022/02/22 08:37:50;;;;;;;7.50;3.23;;;;;;;;;;5022554;28;20204;-62
2022/02/22 08:40:24;;;;;;;9.00;3.17;;;;;;;;;;5023546;28;20217;-65
2022/02/22 08:42:54;;;;;;;10.03;3.00;;;;;;;;;;5021898;28;20203;-65
2022/02/22 08:45:26;;;;;;;7.50;2.63;;;;;;;;;;5021204;28;20249;-63
2022/02/22 08:47:58;;;;;;;7.53;3.30;;;;;;;;;;5024131;28;20211;-62
2022/02/22 08:50:30;;;;;;;8.80;2.93;;;;;;;;;;5009874;28;20207;-64
2022/02/22 08:53:03;;;;;;;7.67;2.80;;;;;;;;;;5025418;28;20199;-64
2022/02/22 08:55:34;;;;;;;10.57;2.67;;;;;;;;;;5021227;28;20245;-64
2022/02/22 08:58:06;;;;;;;7.47;2.70;;;;;;;;;;5024186;28;20865;-63
2022/02/22 09:00:38;;;;;;;7.20;2.27;;;;;;;;;;5020877;28;20223;-64
2022/02/22 09:03:11;;;;;;;8.17;3.43;;;;;;;;;;5013715;28;20273;-63
2022/02/22 09:05:43;;;;;;;7.30;2.83;;;;;;;;;;5022267;28;20340;-64
2022/02/22 09:08:19;;;;;;;9.13;3.37;;;;;;;;;;5027817;28;20206;-64
2022/02/22 09:11:02;;;;;;;8.03;2.80;;;;;;;;;;5023416;28;20183;-63
2022/02/22 09:13:32;;;;;;;5.33;2.73;;;;;;;;;;5020132;28;20265;-63
2022/02/22 09:16:03;;;;;;;8.07;3.30;;;;;;;;;;5020254;28;20217;-64
2022/02/22 09:18:35;;;;;;;6.60;3.33;;;;;;;;;;5025602;28;20216;-64
2022/02/22 09:21:07;;;;;;;7.03;2.63;;;;;;;;;;5015191;28;20720;-63
2022/02/22 09:23:38;;;;;;;5.43;2.70;;;;;;;;;;5018519;28;20215;-63
2022/02/22 09:26:10;;;;;;;12.43;3.13;;;;;;;;;;5022743;28;20236;-65
2022/02/22 09:28:45;;;;;;;7.20;2.77;;;;;;;;;;5027777;28;20205;-64
2022/02/22 09:31:15;;;;;;;7.53;2.30;;;;;;;;;;5002449;28;20745;-63
2022/02/22 09:33:47;;;;;;;8.83;3.03;;;;;;;;;;5008854;28;20199;-65
2022/02/22 09:36:17;;;;;;;5.73;2.30;;;;;;;;;;5025715;28;20210;-64
2022/02/22 09:38:49;;;;;;;8.53;2.87;;;;;;;;;;5019378;28;20191;-65
2022/02/22 09:41:18;;;;;;;7.77;3.30;;;;;;;;;;5010911;28;20701;-65
2022/02/22 09:43:50;;;;;;;11.07;4.23;;;;;;;;;;5017373;28;20198;-63
2022/02/22 09:46:24;;;;;;;7.53;3.77;;;;;;;;;;5024184;28;20219;-62
2022/02/22 09:48:54;;;;;;;11.20;4.27;;;;;;;;;;5025779;28;20630;-61
2022/02/22 09:51:25;;;;;;;8.47;3.40;;;;;;;;;;5021119;28;20666;-64
2022/02/22 09:53:58;;;;;;;6.70;3.13;;;;;;;;;;5020486;28;20532;-65
2022/02/22 09:56:29;;;;;;;8.03;3.40;;;;;;;;;;5027048;28;20234;-64
2022/02/22 09:59:01;;;;;;;6.57;3.07;;;;;;;;;;5022107;28;20274;-64
2022/02/22 10:01:43;;;;;;;7.10;3.43;;;;;;;;;;5022441;28;20247;-63
2022/02/22 10:04:16;;;;;;;7.03;3.50;;;;;;;;;;5021233;28;20566;-63
2022/02/22 10:06:45;;;;;;;7.87;3.93;;;;;;;;;;5024266;28;20254;-64
2022/02/22 10:09:15;;;;;;;5.80;2.77;;;;;;;;;;5016289;28;20214;-64
2022/02/22 10:11:51;;;;;;;7.57;2.80;;;;;;;;;;5025957;28;20254;-63
2022/02/22 10:14:29;;;;;;;6.27;2.93;;;;;;;;;;5006431;28;20207;-65
2022/02/22 10:17:01;;;;;;;7.47;2.83;;;;;;;;;;5026953;28;20225;-63
2022/02/22 10:19:35;;;;;;;6.23;2.77;;;;;;;;;;5025258;28;20702;-62
2022/02/22 10:22:08;;;;;;;7.50;2.90;;;;;;;;;;5029294;28;20203;-64
2022/02/22 10:24:42;;;;;;;14.90;3.37;;;;;;;;;;5024021;28;20206;-62
2022/02/22 10:27:11;;;;;;;5.80;2.70;;;;;;;;;;5024412;28;20215;-63
2022/02/22 10:29:40;;;;;;;13.70;3.33;;;;;;;;;;5023278;28;20273;-64
2022/02/22 10:32:16;;;;;;;10.53;2.77;;;;;;;;;;5015712;28;20647;-62
2022/02/22 10:34:50;;;;;;;7.53;2.63;;;;;;;;;;5027280;28;20217;-63
2022/02/22 10:37:35;;;;;;;9.43;2.37;;;;;;;;;;5021703;28;20837;-61
2022/02/22 10:40:06;;;;;;;7.40;2.67;;;;;;;;;;5029070;28;20286;-61
2022/02/22 10:42:41;;;;;;;5.80;2.97;;;;;;;;;;5023239;28;20247;-61
2022/02/22 10:45:13;;;;;;;7.43;2.40;;;;;;;;;;5005600;28;20537;-62
2022/02/22 10:47:57;;;;;;;6.93;2.70;;;;;;;;;;5019920;28;20290;-63
2022/02/22 10:50:32;;;;;;;6.53;2.90;;;;;;;;;;5019041;28;20221;-62
2022/02/22 10:53:12;;;;;;;7.03;2.77;;;;;;;;;;5019016;28;20206;-64
2022/02/22 10:55:41;;;;;;;7.23;2.67;;;;;;;;;;5023061;28;20222;-62
2022/02/22 10:58:27;;;;;;;9.33;2.43;;;;;;;;;;5021651;28;20588;-61
2022/02/22 11:01:00;;;;;;;9.07;2.70;;;;;;;;;;5005975;28;20202;-62
2022/02/22 11:03:33;;;;;;;12.63;4.30;;;;;;;;;;5012255;28;20626;-63
2022/02/22 11:06:19;;;;;;;112.57;28.63;;;;;;;;;;5025353;28;20340;-63
2022/02/22 11:08:50;;;;;;;94.00;23.07;;;;;;;;;;5017426;28;20202;-63
2022/02/22 11:12:06;;;;;;;63.60;17.07;;;;;;;;;;5023551;28;20199;-63
2022/02/22 11:14:35;;;;;;;49.47;12.53;;;;;;;;;;5001576;28;20217;-63
2022/02/22 11:17:19;;;;;;;41.27;12.13;;;;;;;;;;5020673;28;20223;-62
2022/02/22 11:19:50;;;;;;;37.90;10.87;;;;;;;;;;5018795;28;20225;-61
2022/02/22 11:22:34;;;;;;;28.57;8.83;;;;;;;;;;5005982;28;20535;-63
2022/02/22 11:25:05;;;;;;;26.57;8.73;;;;;;;;;;5017840;28;20584;-63
2022/02/22 11:27:42;;;;;;;33.17;8.90;;;;;;;;;;5022580;28;20218;-61
2022/02/22 11:30:28;;;;;;;27.57;8.33;;;;;;;;;;5017980;28;20227;-64
2022/02/22 11:32:59;;;;;;;32.73;8.27;;;;;;;;;;5017946;28;20717;-63
2022/02/22 11:35:30;;;;;;;26.93;8.47;;;;;;;;;;5016152;28;20830;-61
2022/02/22 11:38:08;;;;;;;27.67;8.90;;;;;;;;;;5007603;28;21189;-62
2022/02/22 11:40:40;;;;;;;24.23;7.67;;;;;;;;;;4991325;28;20206;-64
2022/02/22 11:43:16;;;;;;;23.17;7.30;;;;;;;;;;5014166;28;20257;-63
2022/02/22 11:45:47;;;;;;;23.00;8.13;;;;;;;;;;5019510;28;20219;-66
2022/02/22 11:48:38;;;;;;;19.63;7.57;;;;;;;;;;5019809;28;20196;-66
2022/02/22 11:51:14;;;;;;;21.13;7.03;;;;;;;;;;5018226;28;20209;-65
2022/02/22 11:53:54;;;;;;;18.77;7.33;;;;;;;;;;5019604;28;20203;-64
2022/02/22 11:56:26;;;;;;;19.97;7.17;;;;;;;;;;5011926;28;20225;-62
2022/02/22 11:58:56;;;;;;;20.47;6.83;;;;;;;;;;5021232;28;20203;-63
2022/02/22 12:01:28;;;;;;;18.50;6.27;;;;;;;;;;5009879;28;20277;-62
2022/02/22 12:04:02;;;;;;;16.03;6.20;;;;;;;;;;5019802;28;20210;-62
2022/02/22 12:06:47;;;;;;;19.80;6.37;;;;;;;;;;5023857;28;20284;-61
2022/02/22 12:09:33;;;;;;;16.80;6.27;;;;;;;;;;5019455;28;20210;-64
2022/02/22 12:12:05;;;;;;;20.43;6.47;;;;;;;;;;5022902;28;20206;-65
2022/02/22 12:14:32;;;;;;;16.50;6.13;;;;;;;;;;5021503;28;20211;-64
2022/02/22 12:17:03;;;;;;;22.70;7.00;;;;;;;;;;5008938;28;20234;-62
2022/02/22 12:19:33;;;;;;;12.70;5.50;;;;;;;;;;5023086;28;20594;-63
2022/02/22 12:22:05;;;;;;;12.60;5.70;;;;;;;;;;5027111;28;20240;-64
2022/02/22 12:24:39;;;;;;;12.87;5.53;;;;;;;;;;5022352;28;20202;-65
2022/02/22 12:27:15;;;;;;;16.45;6.70;;;;;;;;;;5020120;28;20824;-62
2022/02/22 12:29:48;;;;;;;14.77;5.30;;;;;;;;;;5025170;28;20211;-62
2022/02/22 12:32:16;;;;;;;12.27;5.57;;;;;;;;;;5015797;28;20219;-62
2022/02/22 12:34:51;;;;;;;13.50;5.70;;;;;;;;;;5025751;28;20221;-62
2022/02/22 12:37:24;;;;;;;16.40;4.87;;;;;;;;;;5007864;28;20264;-62
2022/02/22 12:39:56;;;;;;;13.03;5.10;;;;;;;;;;5023945;28;20215;-63
2022/02/22 12:42:32;;;;;;;11.77;4.83;;;;;;;;;;5009855;28;20203;-62
2022/02/22 12:45:00;;;;;;;9.57;4.17;;;;;;;;;;5021311;28;20265;-62
2022/02/22 12:47:45;;;;;;;10.77;4.93;;;;;;;;;;5026253;28;20291;-62
2022/02/22 12:50:19;;;;;;;11.37;4.37;;;;;;;;;;5008382;28;20204;-63
2022/02/22 12:52:57;;;;;;;10.93;4.40;;;;;;;;;;5031161;28;20199;-64
2022/02/22 12:55:29;;;;;;;10.27;4.93;;;;;;;;;;5017566;28;20206;-62
2022/02/22 12:58:08;;;;;;;9.77;4.57;;;;;;;;;;5006242;28;20205;-63
2022/02/22 13:00:38;;;;;;;9.37;4.27;;;;;;;;;;5007092;28;20221;-62
2022/02/22 13:03:18;;;;;;;10.30;4.67;;;;;;;;;;5023235;28;20910;-62
2022/02/22 13:05:48;;;;;;;12.40;4.57;;;;;;;;;;5008780;28;20250;-66
2022/02/22 13:08:16;;;;;;;10.00;4.20;;;;;;;;;;5021303;28;20216;-66
2022/02/22 13:10:52;;;;;;;11.43;4.33;;;;;;;;;;5019144;28;20648;-66
2022/02/22 13:13:26;;;;;;;11.27;4.40;;;;;;;;;;5023165;28;20207;-65
2022/02/22 13:16:11;;;;;;;9.37;3.93;;;;;;;;;;5024156;28;20195;-62
2022/02/22 13:18:58;;;;;;;9.63;4.13;;;;;;;;;;5006631;28;20203;-62
2022/02/22 13:21:28;;;;;;;8.20;3.80;;;;;;;;;;5015306;28;20219;-63
2022/02/22 13:24:10;;;;;;;7.80;3.70;;;;;;;;;;5024874;28;20215;-62
2022/02/22 13:26:41;;;;;;;11.67;3.97;;;;;;;;;;5009574;28;20678;-66
2022/02/22 13:29:32;;;;;;;8.30;3.97;;;;;;;;;;5021765;28;20202;-65
2022/02/22 13:32:16;;;;;;;10.73;4.10;;;;;;;;;;5023751;28;20207;-66
2022/02/22 13:34:54;;;;;;;7.23;3.60;;;;;;;;;;5027358;28;20668;-66
2022/02/22 13:37:41;;;;;;;11.40;3.83;;;;;;;;;;5015343;28;20239;-66
2022/02/22 13:40:18;;;;;;;9.00;3.60;;;;;;;;;;5001634;28;20219;-65
2022/02/22 13:43:20;;;;;;;7.73;4.30;;;;;;;;;;5008535;28;20191;-65
2022/02/22 13:45:49;;;;;;;7.63;3.50;;;;;;;;;;5006683;28;20228;-67
2022/02/22 13:48:18;;;;;;;8.10;3.63;;;;;;;;;;5024575;28;20198;-66
2022/02/22 13:50:48;;;;;;;6.17;3.20;;;;;;;;;;5022792;28;20195;-64
2022/02/22 13:53:21;;;;;;;7.77;3.40;;;;;;;;;;5019845;28;20187;-66
2022/02/22 13:56:01;;;;;;;6.43;3.20;;;;;;;;;;5019362;28;20191;-64
2022/02/22 13:58:35;;;;;;;7.43;3.63;;;;;;;;;;5003128;28;20206;-65
2022/02/22 14:01:10;;;;;;;7.27;3.40;;;;;;;;;;5020890;28;20294;-62
2022/02/22 14:03:41;;;;;;;10.37;4.13;;;;;;;;;;5019731;28;20269;-63
2022/02/22 14:06:12;;;;;;;10.07;4.17;;;;;;;;;;5023559;28;20231;-64
2022/02/22 14:08:43;;;;;;;10.10;4.00;;;;;;;;;;5001694;28;20204;-65
2022/02/22 14:11:13;;;;;;;7.03;3.57;;;;;;;;;;5021998;28;20206;-64
2022/02/22 14:13:44;;;;;;;11.03;4.40;;;;;;;;;;5023326;28;20207;-64
2022/02/22 14:16:25;;;;;;;9.83;3.93;;;;;;;;;;5012906;28;20215;-64
2022/02/22 14:18:54;;;;;;;11.00;4.87;;;;;;;;;;5016636;28;20211;-65
2022/02/22 14:21:23;;;;;;;12.57;4.00;;;;;;;;;;5017353;28;20219;-65
2022/02/22 14:23:51;;;;;;;10.87;3.60;;;;;;;;;;5016685;28;20203;-67
2022/02/22 14:26:21;;;;;;;8.07;3.10;;;;;;;;;;5025184;28;20218;-62
2022/02/22 14:28:50;;;;;;;7.17;3.27;;;;;;;;;;5019431;28;20207;-63
2022/02/22 14:31:19;;;;;;;7.90;3.23;;;;;;;;;;5020530;28;20191;-66
2022/02/22 14:33:49;;;;;;;5.67;2.50;;;;;;;;;;5018797;28;20211;-67
2022/02/22 14:36:23;;;;;;;5.17;2.63;;;;;;;;;;5006845;28;20202;-67
2022/02/22 14:38:56;;;;;;;6.50;2.70;;;;;;;;;;5020138;28;20195;-66
2022/02/22 14:41:26;;;;;;;5.40;2.77;;;;;;;;;;5013480;28;20203;-67
2022/02/22 14:43:55;;;;;;;6.10;2.43;;;;;;;;;;5017255;28;20206;-67
2022/02/22 14:46:24;;;;;;;5.10;2.67;;;;;;;;;;5002093;28;20332;-66
2022/02/22 14:48:53;;;;;;;6.60;2.60;;;;;;;;;;5023110;28;20656;-66
2022/02/22 14:51:22;;;;;;;5.27;2.50;;;;;;;;;;4996319;28;20196;-67
2022/02/22 14:53:53;;;;;;;5.43;2.50;;;;;;;;;;5018737;28;20217;-67
2022/02/22 14:56:23;;;;;;;4.17;2.60;;;;;;;;;;5009915;28;20223;-67
2022/02/22 14:58:53;;;;;;;3.87;2.30;;;;;;;;;;5020244;28;20615;-66
2022/02/22 15:01:23;;;;;;;3.63;2.40;;;;;;;;;;5017196;28;20202;-63
2022/02/22 15:03:53;;;;;;;4.13;2.13;;;;;;;;;;5004747;28;20567;-63
2022/02/22 15:06:23;;;;;;;3.83;2.10;;;;;;;;;;5020225;28;20235;-63
2022/02/22 15:08:55;;;;;;;7.80;2.17;;;;;;;;;;5003748;28;20226;-62
2022/02/22 15:11:25;;;;;;;6.37;2.10;;;;;;;;;;5002871;28;20925;-61